Heart Butte, Montana
Current Conditions -  °F | °C
As of 11:56 PM on Tuesday 21 Oct 2014 (Local Time) from KCTB Reporting Station
Few Clouds Few Clouds  
Wind Chill: 36°   Ceiling: Unl
Heat Index: 44°   Visibility: 10mi
Dew Point: 34°   Wind: 20mph
Humidity: 68%   Direction: 260°W
Pressure: 29.84"   Gusts: NA
Location:  48.29°N, 112.83°W
Report Text: KCTB 220556Z AUTO 26017KT 10SM FEW070 07/01 A2984 RMK AO2 SLPNO T00670011 10083 20061 53008
Loading
Personal Weather Stations






























Interactive Weather Map
Tropical Storm Tracking
New forecast layout! Learn more

10-Day Weather Forecast

Advertisements
Track Severe Weather on mobile